• Join FlightAware (Why Join?)
  • Login
  • US Flag 
07:45AM EDT


 

Airport Tracker/Info


-or-


 

Live Flight TrackerFlight Track Log ✈ VH-VQA ✈ 14-May-2012 ✈ YBBN / BNE - YWLM / NTL

Flight Track Log - Related Links

Times and Time Zones

All times are in EDT time to prevent confusion due to time zone crossing. See the VH-VQA flight status page for this flight to view local times or setup timezone preferences in your user account.

Time Position Orientation Groundspeed Altitude Reporting Facility
EDT Latitude Longitude Course Direction KTS MPH feet Rate Location/Type
04:09PM -27.4334 153.1129 153° Southeast 163 188 2,500  Level Aus ATC (RADAR)
04:10PM -27.4806 153.1404 182° South 200 230 4,000 1,800 Climbing Aus ATC (RADAR)
04:11PM -27.5486 153.1380 199° South 260 299 6,300 2,820 Climbing Aus ATC (RADAR)
04:12PM -27.6183 153.1110 199° South 263 303 9,600 2,460 Climbing Aus ATC (RADAR)
04:14PM -27.7892 153.0447 199° South 330 380 14,000 2,160 Climbing Aus ATC (RADAR)
04:16PM -27.9623 152.9763 199° South 351 404 18,300 2,040 Climbing Aus ATC (RADAR)
04:17PM -28.0658 152.9352 201° Southwest 373 429 20,200 1,740 Climbing Aus ATC (RADAR)
04:19PM -28.1894 152.8825 202° Southwest 381 438 22,400 1,680 Climbing Aus ATC (RADAR)
04:20PM -28.2973 152.8337 202° Southwest 388 447 24,200 1,380 Climbing Aus ATC (RADAR)
04:21PM -28.3983 152.7885 201° Southwest 397 457 25,300 1,260 Climbing Aus ATC (RADAR)
04:22PM -28.5106 152.7385 201° Southwest 401 461 26,900 1,380 Climbing Aus ATC (RADAR)
04:23PM -28.6242 152.6877 202° Southwest 409 471 28,300 1,200 Climbing Aus ATC (RADAR)
04:24PM -28.7308 152.6391 201° Southwest 416 479 29,400 1,020 Climbing Aus ATC (RADAR)
04:25PM -28.8568 152.5828 201° Southwest 418 481 30,600 1,080 Climbing Aus ATC (RADAR)
04:26PM -28.9657 152.5341 201° Southwest 420 483 31,800 1,260 Climbing Aus ATC (RADAR)
04:27PM -29.0804 152.4843 191° South 411 473 33,300 1,080 Climbing Aus ATC (RADAR)
04:28PM -29.2162 152.4546 191° South 425 489 34,300 360 Climbing Aus ATC (RADAR)
04:30PM -29.3705 152.4196 191° South 424 488 34,200 -60 Descending Aus ATC (RADAR)
04:31PM -29.5602 152.3765 191° South 419 482 34,200  Level Aus ATC (RADAR)
04:32PM -29.6833 152.3480 192° South 415 478 34,200  Level Aus ATC (RADAR)
04:33PM -29.7977 152.3210 192° South 420 483 34,200  Level Aus ATC (RADAR)
04:34PM -29.9224 152.2914 191° South 424 488 34,200  Level Aus ATC (RADAR)
04:36PM -30.0474 152.2625 191° South 421 484 34,200  Level Aus ATC (RADAR)
04:37PM -30.1631 152.2356 191° South 424 488 34,200  Level Aus ATC (RADAR)
04:38PM -30.2786 152.2085 190° South 423 487 34,200  Level Aus ATC (RADAR)
04:39PM -30.4042 152.1818 191° South 419 482 34,200  Level Aus ATC (RADAR)
04:40PM -30.5282 152.1551 193° South 419 482 34,200  Level Aus ATC (RADAR)
04:41PM -30.6488 152.1216 192° South 415 478 34,200  Level Aus ATC (RADAR)
04:42PM -30.7610 152.0950 192° South 413 475 34,200  Level Aus ATC (RADAR)
04:43PM -30.8829 152.0659 191° South 412 474 34,200 -600 Level Aus ATC (RADAR)
04:45PM -31.0896 152.0174 192° South 406 467 32,600 -1,380 Descending Aus ATC (RADAR)
04:46PM -31.2091 151.9889 191° South 398 458 30,200 -2,400 Descending Aus ATC (RADAR)
04:47PM -31.3353 151.9599 192° South 391 450 27,200 -2,340 Descending Aus ATC (RADAR)
04:48PM -31.4472 151.9325 192° South 372 428 25,000 -1,980 Descending Aus ATC (RADAR)
04:49PM -31.5531 151.9058 191° South 352 405 23,000 -1,860 Descending Aus ATC (RADAR)
04:50PM -31.6544 151.8823 192° South 337 388 21,000 -1,800 Descending Aus ATC (RADAR)
04:51PM -31.7497 151.8590 192° South 315 362 19,200 -1,680 Descending Aus ATC (RADAR)
04:52PM -31.8406 151.8372 192° South 299 344 17,400 -1,680 Descending Aus ATC (RADAR)
04:53PM -31.9213 151.8176 192° South 292 336 15,800 -1,620 Descending Aus ATC (RADAR)
04:54PM -32.0119 151.7953 191° South 312 359 14,100 -1,320 Descending Aus ATC (RADAR)
04:55PM -32.0967 151.7754 181° South 308 354 13,100 -960 Descending Aus ATC (RADAR)
04:56PM -32.1811 151.7732 175° South 301 346 12,200 -840 Descending Aus ATC (RADAR)
04:58PM -32.2712 151.7824 175° South 299 344 11,400 -1,440 Descending Aus ATC (RADAR)
05:00PM -32.4543 151.7998 173° South 282 325 7,500 -1,740 Descending Aus ATC (RADAR)
05:01PM -32.5396 151.8127 158° South 272 313 5,800 -1,380 Descending Aus ATC (RADAR)
05:02PM -32.6016 151.8428 163° South 252 290 4,800 -960 Descending Aus ATC (RADAR)
05:03PM -32.6681 151.8668 165° South 237 273 4,000 -720 Descending Aus ATC (RADAR)
05:03PM -32.7076 151.8795 164° South 215 247 3,600 -720 Descending Aus ATC (RADAR)
05:05PM -32.7647 151.8988 163° South 184 212 2,800 -900 Descending Aus ATC (RADAR)
05:05PM -32.7919 151.9089 163° South 174 200 2,100 -900 Descending Aus ATC (RADAR)
05:06PM -32.8171 151.9179 236° Southwest 158 182 1,800 -840 Descending Aus ATC (RADAR)
05:06PM -32.8280 151.8989 283° West 132 152 1,200 -1,020 Descending Aus ATC (RADAR)
05:07PM -32.8232 151.8739 309° West 128 147 700 -840 Descending Aus ATC (RADAR)
05:07PM -32.8119 151.8573 309° West 124 143 300 -840 Descending Aus ATC (RADAR)